Time;durP1;ratioP1;P1;durP2;ratioP2;P2;SDS_P1;SDS_P2;PMS_P1;PMS_P2;Temp;Humidity;BMP_temperature;BMP_pressure;BME280_temperature;BME280_humidity;BME280_pressure;Samples;Min_cycle;Max_cycle;Signal;HPM_P1;HPM_P2
2022/11/27 00:04:41;;;;;;;9.93;7.03;;;;;;;6.29;100.00;102312.00;10590061;28;20061;-65
2022/11/27 00:09:42;;;;;;;14.82;6.93;;;;;;;6.28;100.00;102297.66;10589017;28;20399;-65
2022/11/27 00:14:42;;;;;;;10.20;6.70;;;;;;;6.22;100.00;102292.84;10589718;28;20036;-65
2022/11/27 00:19:43;;;;;;;19.50;7.18;;;;;;;6.21;100.00;102291.13;10569586;28;20036;-65
2022/11/27 00:24:43;;;;;;;16.52;7.55;;;;;;;6.23;100.00;102293.72;10588376;28;20095;-65
2022/11/27 00:29:44;;;;;;;11.85;6.85;;;;;;;6.26;100.00;102293.44;10569502;28;20459;-65
2022/11/27 00:34:44;;;;;;;13.55;7.82;;;;;;;6.31;100.00;102290.31;10552291;28;20036;-65
2022/11/27 00:39:46;;;;;;;15.02;6.38;;;;;;;6.29;100.00;102285.94;10568030;28;20085;-65
2022/11/27 00:44:46;;;;;;;10.73;7.78;;;;;;;6.26;100.00;102274.59;10585546;28;20088;-65
2022/11/27 00:49:46;;;;;;;19.02;6.53;;;;;;;6.31;100.00;102276.88;10585006;28;20035;-65
2022/11/27 00:54:47;;;;;;;17.15;5.63;;;;;;;6.35;100.00;102281.00;10567902;28;20455;-65
2022/11/27 00:59:48;;;;;;;14.73;6.75;;;;;;;6.50;100.00;102291.25;10569734;28;20035;-64
2022/11/27 01:04:48;;;;;;;5.13;4.63;;;;;;;6.58;100.00;102271.72;10590931;28;20118;-65
2022/11/27 01:09:49;;;;;;;12.40;5.38;;;;;;;6.59;100.00;102270.75;10593455;28;20439;-65
2022/11/27 01:14:49;;;;;;;10.02;5.13;;;;;;;6.64;100.00;102255.03;10594444;28;20051;-65
2022/11/27 01:19:50;;;;;;;8.35;4.68;;;;;;;6.63;100.00;102255.16;10591042;28;20036;-65
2022/11/27 01:24:50;;;;;;;14.82;6.75;;;;;;;6.63;100.00;102228.25;10586015;28;20118;-64
2022/11/27 01:29:50;;;;;;;13.07;5.95;;;;;;;6.59;100.00;102222.28;10566777;28;20031;-65
2022/11/27 01:34:51;;;;;;;15.02;4.97;;;;;;;6.66;100.00;102206.44;10585094;28;20031;-65
2022/11/27 01:39:51;;;;;;;20.83;7.55;;;;;;;6.65;100.00;102202.91;10584095;28;20027;-65
2022/11/27 01:44:53;;;;;;;15.00;6.18;;;;;;;6.66;100.00;102198.34;10585635;28;20043;-66
2022/11/27 01:49:54;;;;;;;8.05;5.50;;;;;;;6.70;100.00;102200.66;10565609;28;20031;-65
2022/11/27 01:55:24;;;;;;;11.13;5.57;;;;;;;6.70;100.00;102195.25;10583608;28;20027;-65
2022/11/27 02:00:25;;;;;;;12.10;5.10;;;;;;;6.69;100.00;102182.78;10582630;28;20474;-65
2022/11/27 02:05:27;;;;;;;12.05;5.50;;;;;;;6.69;100.00;102174.69;10582807;28;20059;-65
2022/11/27 02:10:52;;;;;;;20.13;6.63;;;;;;;6.78;100.00;102185.63;10565776;28;20036;-65
2022/11/27 02:16:15;;;;;;;8.10;5.65;;;;;;;6.80;100.00;102189.03;10564970;28;20044;-65
2022/11/27 02:21:31;;;;;;;7.95;4.45;;;;;;;6.78;100.00;102180.25;10565926;28;20035;-65
2022/11/27 02:27:08;;;;;;;7.45;4.15;;;;;;;6.86;100.00;102177.66;10565159;28;20035;-64
2022/11/27 02:32:14;;;;;;;11.93;4.50;;;;;;;6.83;100.00;102176.13;10582798;28;20055;-65
2022/11/27 02:37:37;;;;;;;8.33;4.57;;;;;;;6.82;100.00;102166.34;10584003;28;20031;-65
2022/11/27 02:42:53;;;;;;;10.93;5.63;;;;;;;6.86;100.00;102157.00;10563665;28;20072;-64
2022/11/27 02:47:53;;;;;;;15.00;5.27;;;;;;;6.92;100.00;102169.91;10582844;28;20031;-65
2022/11/27 02:52:56;;;;;;;7.35;4.88;;;;;;;6.96;100.00;102174.00;10564379;28;20031;-65
2022/11/27 02:57:57;;;;;;;7.40;4.25;;;;;;;6.97;100.00;102169.47;10564263;28;20076;-65
2022/11/27 03:02:59;;;;;;;13.07;5.50;;;;;;;6.97;100.00;102170.31;10580221;28;20038;-65
2022/11/27 03:08:14;;;;;;;6.35;4.20;;;;;;;7.00;100.00;102166.47;10566304;28;20526;-65
2022/11/27 03:13:15;;;;;;;11.63;5.20;;;;;;;7.00;100.00;102142.25;10589703;28;20058;-65
2022/11/27 03:18:51;;;;;;;5.00;4.32;;;;;;;6.97;100.00;102147.91;10573561;28;20032;-65
2022/11/27 03:23:52;;;;;;;15.03;4.50;;;;;;;6.98;100.00;102160.38;10559392;28;20040;-64
2022/11/27 03:28:52;;;;;;;10.10;4.38;;;;;;;7.08;100.00;102161.22;10592348;28;20451;-65
2022/11/27 03:33:53;;;;;;;7.45;3.58;;;;;;;7.10;100.00;102150.31;10578494;28;20023;-65
2022/11/27 03:38:54;;;;;;;10.70;4.60;;;;;;;7.12;100.00;102142.94;10582286;28;20131;-64
2022/11/27 03:44:05;;;;;;;14.95;6.07;;;;;;;7.07;100.00;102143.38;10589188;28;20036;-65
2022/11/27 03:49:32;;;;;;;6.05;3.75;;;;;;;7.06;100.00;102141.69;10571074;28;20043;-65
2022/11/27 03:54:47;;;;;;;5.80;3.50;;;;;;;7.12;100.00;102132.19;10588976;28;20046;-65
2022/11/27 03:59:48;;;;;;;7.45;3.95;;;;;;;7.15;100.00;102137.28;10588304;28;20563;-64
2022/11/27 04:04:49;;;;;;;5.60;3.45;;;;;;;7.00;100.00;102136.88;10569643;28;20032;-64
2022/11/27 04:09:49;;;;;;;14.75;5.88;;;;;;;7.06;100.00;102130.91;10588884;28;20429;-64
2022/11/27 04:14:50;;;;;;;18.02;5.03;;;;;;;7.06;100.00;102138.13;10587484;28;20116;-66
2022/11/27 04:19:50;;;;;;;11.85;5.07;;;;;;;7.02;100.00;102134.00;10587585;28;20031;-64
2022/11/27 04:24:50;;;;;;;11.90;4.22;;;;;;;6.96;100.00;102122.84;10569768;28;20490;-63
2022/11/27 04:29:51;;;;;;;7.18;3.53;;;;;;;6.96;100.00;102120.16;10586952;28;20459;-62
2022/11/27 04:34:51;;;;;;;15.93;4.47;;;;;;;6.91;100.00;102119.72;10568760;28;20077;-63
2022/11/27 04:39:52;;;;;;;12.73;4.45;;;;;;;6.90;100.00;102103.72;10569807;28;20032;-65
2022/11/27 04:44:52;;;;;;;5.93;4.63;;;;;;;6.94;100.00;102105.13;10568479;28;20030;-63
2022/11/27 04:49:52;;;;;;;9.75;4.10;;;;;;;6.94;100.00;102095.19;10587351;28;20455;-64
2022/11/27 04:54:53;;;;;;;13.93;5.13;;;;;;;6.88;100.00;102090.38;10569911;28;20415;-63
2022/11/27 04:59:53;;;;;;;11.05;4.07;;;;;;;6.96;100.00;102082.44;10586154;28;20023;-63
2022/11/27 05:04:54;;;;;;;12.13;4.22;;;;;;;6.92;100.00;102081.03;10586666;28;20031;-63
2022/11/27 05:09:54;;;;;;;3.75;3.33;;;;;;;6.88;100.00;102074.22;10567646;28;20369;-63
2022/11/27 05:14:55;;;;;;;6.22;3.58;;;;;;;6.91;100.00;102079.31;10586543;28;20059;-63
2022/11/27 05:19:55;;;;;;;3.35;2.85;;;;;;;6.86;100.00;102070.84;10568190;28;20043;-62
2022/11/27 05:24:55;;;;;;;5.40;3.35;;;;;;;6.82;100.00;102068.56;10585270;28;20340;-63
2022/11/27 05:29:56;;;;;;;13.18;3.17;;;;;;;6.81;100.00;102058.81;10584922;28;20073;-62
2022/11/27 05:34:56;;;;;;;3.03;2.45;;;;;;;6.74;100.00;102051.31;10568377;28;20036;-62
2022/11/27 05:39:56;;;;;;;4.57;3.30;;;;;;;6.60;100.00;102061.66;10585693;28;20067;-62
2022/11/27 05:44:57;;;;;;;14.13;4.45;;;;;;;6.60;100.00;102050.88;10584073;28;20051;-62
2022/11/27 05:49:57;;;;;;;7.80;3.35;;;;;;;6.62;100.00;102052.44;10565987;28;20045;-62
2022/11/27 05:54:58;;;;;;;6.63;3.42;;;;;;;6.58;100.00;102039.44;10583814;28;20040;-63
2022/11/27 05:59:58;;;;;;;6.03;3.20;;;;;;;6.54;100.00;102038.88;10584659;28;20036;-63
2022/11/27 06:04:58;;;;;;;4.35;3.45;;;;;;;6.51;100.00;102036.47;10565176;28;20114;-62
2022/11/27 06:09:59;;;;;;;7.80;3.92;;;;;;;6.49;100.00;102025.00;10583176;28;20039;-62
2022/11/27 06:14:59;;;;;;;6.82;3.42;;;;;;;6.44;100.00;102016.47;10582280;28;20051;-61
2022/11/27 06:19:59;;;;;;;9.40;4.32;;;;;;;6.45;100.00;102028.97;10564158;28;20024;-63
2022/11/27 06:25:00;;;;;;;8.10;4.00;;;;;;;6.37;100.00;102020.75;10564945;28;20377;-62
2022/11/27 06:30:00;;;;;;;4.82;3.78;;;;;;;6.35;100.00;102002.06;10583734;28;20138;-63
2022/11/27 06:35:01;;;;;;;5.80;3.40;;;;;;;6.35;100.00;102004.75;10583103;28;20038;-62
2022/11/27 06:40:01;;;;;;;4.13;2.85;;;;;;;6.35;100.00;101996.69;10583479;28;20027;-64
2022/11/27 06:45:02;;;;;;;8.68;3.70;;;;;;;6.34;100.00;101991.44;10583707;28;20126;-63
2022/11/27 06:50:02;;;;;;;6.97;3.03;;;;;;;6.27;100.00;101970.47;10582801;28;20039;-64
2022/11/27 06:55:03;;;;;;;9.93;3.58;;;;;;;6.23;100.00;101962.84;10563916;28;20039;-63
2022/11/27 07:00:04;;;;;;;5.30;3.10;;;;;;;6.23;100.00;101960.16;10582966;28;20119;-64
2022/11/27 07:05:05;;;;;;;7.35;2.90;;;;;;;6.23;100.00;101950.25;10563596;28;20031;-64
2022/11/27 07:10:06;;;;;;;8.38;4.00;;;;;;;6.24;100.00;101949.25;10564302;28;20106;-64
2022/11/27 07:15:07;;;;;;;15.45;4.03;;;;;;;6.32;100.00;101947.69;10563672;28;20067;-65
2022/11/27 07:20:07;;;;;;;5.72;2.83;;;;;;;6.33;100.00;101949.41;10581502;28;20027;-63
2022/11/27 07:25:08;;;;;;;11.38;3.97;;;;;;;6.33;100.00;101933.25;10581273;28;20032;-65
2022/11/27 07:30:09;;;;;;;12.80;3.13;;;;;;;6.34;100.00;101935.78;10582700;28;20031;-65
2022/11/27 07:35:09;;;;;;;3.85;3.13;;;;;;;6.36;100.00;101922.22;10563449;28;20447;-64
2022/11/27 07:40:10;;;;;;;7.15;4.45;;;;;;;6.41;100.00;101936.06;10562853;28;20123;-64
2022/11/27 07:45:10;;;;;;;21.98;4.22;;;;;;;6.44;100.00;101935.75;10582115;28;20023;-65
2022/11/27 07:50:11;;;;;;;17.80;4.60;;;;;;;6.47;100.00;101932.78;10580110;28;20038;-65
2022/11/27 07:55:11;;;;;;;8.27;3.78;;;;;;;6.49;100.00;101911.97;10584996;28;20089;-64
2022/11/27 08:00:12;;;;;;;7.30;3.63;;;;;;;6.50;100.00;101933.34;10570152;28;20528;-64
2022/11/27 08:05:12;;;;;;;7.97;3.88;;;;;;;6.53;100.00;101924.13;10569887;28;20032;-64
2022/11/27 08:10:13;;;;;;;3.33;2.95;;;;;;;6.49;100.00;101920.03;10568975;28;20035;-65
2022/11/27 08:15:13;;;;;;;3.88;3.40;;;;;;;6.52;100.00;101917.06;10588469;28;20174;-64
2022/11/27 08:20:14;;;;;;;6.93;4.18;;;;;;;6.43;100.00;101920.63;10569319;28;20043;-64
2022/11/27 08:25:14;;;;;;;7.50;3.30;;;;;;;6.46;100.00;101923.88;10588299;28;20040;-65
2022/11/27 08:30:15;;;;;;;8.40;4.40;;;;;;;6.46;100.00;101918.50;10587059;28;20100;-64
2022/11/27 08:35:15;;;;;;;14.55;4.32;;;;;;;6.43;100.00;101926.00;10568584;28;20028;-65
2022/11/27 08:40:16;;;;;;;4.20;3.05;;;;;;;6.40;100.00;101919.06;10586507;28;20046;-64
2022/11/27 08:45:16;;;;;;;5.35;4.75;;;;;;;6.45;100.00;101918.66;10567835;28;20027;-64
2022/11/27 08:50:17;;;;;;;7.80;3.90;;;;;;;6.44;100.00;101904.31;10569237;28;20475;-64
2022/11/27 08:55:17;;;;;;;3.97;3.58;;;;;;;6.40;100.00;101916.38;10585948;28;20114;-64
2022/11/27 09:00:18;;;;;;;10.10;4.95;;;;;;;6.42;100.00;101916.25;10567899;28;20081;-64
2022/11/27 09:05:19;;;;;;;8.90;4.68;;;;;;;6.47;100.00;101905.88;10584382;28;20410;-65
2022/11/27 09:10:19;;;;;;;7.47;3.78;;;;;;;6.50;100.00;101903.75;10567294;28;20392;-64
2022/11/27 09:15:20;;;;;;;4.78;3.95;;;;;;;6.46;100.00;101909.56;10524716;28;20047;-64
2022/11/27 09:20:20;;;;;;;4.50;3.80;;;;;;;6.51;100.00;101905.47;10524208;28;20032;-65
2022/11/27 09:25:20;;;;;;;6.95;3.72;;;;;;;6.58;100.00;101900.34;10543067;28;20357;-63
2022/11/27 09:30:21;;;;;;;6.97;4.32;;;;;;;6.59;100.00;101901.19;10523995;28;20043;-64
2022/11/27 09:35:21;;;;;;;8.07;4.07;;;;;;;6.63;100.00;101886.41;10540281;28;20036;-71
2022/11/27 09:40:22;;;;;;;6.70;3.97;;;;;;;6.59;100.00;101875.09;10541017;28;20463;-66
2022/11/27 09:45:22;;;;;;;19.17;5.95;;;;;;;6.56;100.00;101878.09;10540388;28;20404;-66
2022/11/27 09:50:33;;;;;;;7.40;4.97;;;;;;;6.55;100.00;101879.09;10520548;28;20054;-64
2022/11/27 09:55:40;;;;;;;10.75;4.55;;;;;;;6.50;100.00;101879.53;10506142;28;20036;-66
2022/11/27 10:00:43;;;;;;;10.45;5.05;;;;;;;6.53;100.00;101860.38;10506569;28;20032;-65
2022/11/27 10:06:01;;;;;;;11.30;5.80;;;;;;;6.57;100.00;101865.47;10539828;28;20032;-66
2022/11/27 10:11:04;;;;;;;8.80;6.28;;;;;;;6.60;100.00;101862.50;10539832;28;20027;-64
2022/11/27 10:16:25;;;;;;;8.63;5.35;;;;;;;6.63;100.00;101854.97;10575962;28;20051;-64
2022/11/27 10:21:41;;;;;;;6.97;4.93;;;;;;;6.60;100.00;101857.97;10583276;28;20035;-65
2022/11/27 10:26:46;;;;;;;7.83;4.83;;;;;;;6.60;100.00;101849.03;10581054;28;20459;-64
2022/11/27 10:31:48;;;;;;;9.65;5.13;;;;;;;6.51;100.00;101853.50;10581911;28;20035;-64
2022/11/27 10:36:49;;;;;;;9.82;5.43;;;;;;;6.57;100.00;101847.47;10547842;28;20028;-64
2022/11/27 10:42:02;;;;;;;12.52;5.43;;;;;;;6.54;100.00;101839.75;10582372;28;20367;-64
2022/11/27 10:47:07;;;;;;;14.32;6.20;;;;;;;6.56;100.00;101824.28;10564319;28;20379;-64
2022/11/27 10:52:17;;;;;;;16.42;5.97;;;;;;;6.62;100.00;101802.16;10563512;28;20031;-64
2022/11/27 10:57:29;;;;;;;13.52;5.82;;;;;;;6.65;100.00;101799.16;10564684;28;20051;-68
2022/11/27 11:02:34;;;;;;;10.27;5.65;;;;;;;6.70;100.00;101796.88;10581408;28;20348;-64
2022/11/27 11:07:34;;;;;;;11.82;6.70;;;;;;;6.66;100.00;101789.22;10581208;28;20088;-66
2022/11/27 11:12:35;;;;;;;9.90;6.97;;;;;;;6.59;100.00;101774.69;10580367;28;20116;-65
2022/11/27 11:17:39;;;;;;;9.73;6.13;;;;;;;6.63;100.00;101786.84;10580103;28;20067;-66
2022/11/27 11:22:44;;;;;;;13.35;8.07;;;;;;;6.61;100.00;101781.63;10563061;28;20027;-65
2022/11/27 11:27:45;;;;;;;13.10;6.63;;;;;;;6.66;100.00;101773.09;10580760;28;20031;-64
2022/11/27 11:32:48;;;;;;;11.70;6.88;;;;;;;6.69;100.00;101757.47;10588211;28;20042;-65
2022/11/27 11:37:48;;;;;;;8.60;7.25;;;;;;;6.73;100.00;101750.81;10589439;28;20062;-64
2022/11/27 11:42:57;;;;;;;8.48;6.30;;;;;;;6.85;100.00;101737.97;10587344;28;20039;-64
2022/11/27 11:48:02;;;;;;;6.90;5.88;;;;;;;6.72;100.00;101729.41;10589433;28;20035;-65
2022/11/27 11:53:32;;;;;;;11.88;7.63;;;;;;;6.71;100.00;101707.03;10570472;28;20110;-64
2022/11/27 11:58:39;;;;;;;9.85;6.35;;;;;;;6.73;100.00;101705.06;10588453;28;20063;-67
2022/11/27 12:03:55;;;;;;;11.68;7.20;;;;;;;6.75;100.00;101708.41;10569729;28;20035;-64
2022/11/27 12:09:01;;;;;;;13.85;6.22;;;;;;;6.71;100.00;101693.59;10588137;28;20024;-64
2022/11/27 12:14:10;;;;;;;12.68;7.20;;;;;;;6.66;100.00;101689.66;10569224;28;20056;-64
2022/11/27 12:19:25;;;;;;;7.65;6.60;;;;;;;6.73;100.00;101693.41;10588097;28;20080;-66
2022/11/27 12:24:50;;;;;;;8.30;6.57;;;;;;;6.79;100.00;101676.66;10569977;28;20031;-64
2022/11/27 12:30:19;;;;;;;23.67;7.28;;;;;;;6.69;100.00;101660.59;10586555;28;20436;-64
2022/11/27 12:35:22;;;;;;;13.07;8.45;;;;;;;6.68;100.00;101661.59;10585903;28;20059;-64
2022/11/27 12:40:35;;;;;;;15.48;7.75;;;;;;;6.73;100.00;101656.59;10584623;28;20135;-64
2022/11/27 12:45:48;;;;;;;15.25;8.15;;;;;;;6.73;100.00;101645.84;10568496;28;20107;-65
2022/11/27 12:51:00;;;;;;;10.25;7.35;;;;;;;6.78;100.00;101648.06;10567236;28;20028;-64
2022/11/27 12:56:10;;;;;;;7.93;6.93;;;;;;;6.82;100.00;101643.22;10568097;28;20027;-66
2022/11/27 13:01:16;;;;;;;9.93;7.97;;;;;;;6.78;100.00;101639.97;10585962;28;20024;-66
2022/11/27 13:06:18;;;;;;;10.70;7.10;;;;;;;6.92;100.00;101628.69;10586244;28;20043;-65
2022/11/27 13:11:19;;;;;;;13.60;6.53;;;;;;;6.98;100.00;101621.78;10567993;28;20032;-65
2022/11/27 13:16:26;;;;;;;11.63;7.22;;;;;;;7.06;100.00;101612.97;10566997;28;20039;-65
2022/11/27 13:21:29;;;;;;;8.15;6.38;;;;;;;7.02;100.00;101604.34;10584268;28;20414;-66
2022/11/27 13:26:35;;;;;;;5.55;5.05;;;;;;;6.98;100.00;101603.78;10549295;28;20055;-65
2022/11/27 13:31:37;;;;;;;9.20;7.72;;;;;;;6.93;100.00;101602.59;10583987;28;20031;-65
2022/11/27 13:36:40;;;;;;;5.93;5.28;;;;;;;6.84;100.00;101587.38;10583084;28;20417;-64
2022/11/27 13:41:42;;;;;;;13.88;6.65;;;;;;;6.89;100.00;101572.44;10582500;28;20031;-66
2022/11/27 13:46:43;;;;;;;6.93;5.30;;;;;;;6.85;100.00;101583.66;10565238;28;20099;-68
2022/11/27 13:51:44;;;;;;;9.50;5.97;;;;;;;6.89;100.00;101564.38;10564869;28;20043;-65
2022/11/27 13:56:44;;;;;;;9.50;5.68;;;;;;;6.97;100.00;101558.19;10565508;28;20039;-64
2022/11/27 14:01:58;;;;;;;5.68;5.13;;;;;;;6.93;100.00;101554.97;10566294;28;20046;-62
2022/11/27 14:07:06;;;;;;;6.35;5.18;;;;;;;6.91;100.00;101537.28;10547327;28;20424;-63
2022/11/27 14:12:24;;;;;;;7.25;5.47;;;;;;;6.89;100.00;101523.97;10581073;28;20019;-64
2022/11/27 14:17:26;;;;;;;7.90;5.22;;;;;;;6.89;100.00;101523.97;10565513;28;20027;-63
2022/11/27 14:22:42;;;;;;;4.97;4.47;;;;;;;6.84;100.00;101517.38;10566036;28;20127;-62
2022/11/27 14:27:43;;;;;;;10.57;4.93;;;;;;;6.78;100.00;101512.63;10581218;28;20360;-63
2022/11/27 14:32:43;;;;;;;7.25;4.88;;;;;;;6.81;100.00;101512.31;10563352;28;20028;-63
2022/11/27 14:37:43;;;;;;;14.02;4.80;;;;;;;6.83;100.00;101508.47;10581950;28;20444;-62
2022/11/27 14:42:44;;;;;;;7.38;5.57;;;;;;;6.83;100.00;101503.06;10565310;28;20063;-65
2022/11/27 14:47:49;;;;;;;18.40;8.35;;;;;;;6.86;100.00;101491.13;10581504;28;20042;-67
2022/11/27 14:52:54;;;;;;;9.75;6.35;;;;;;;6.78;100.00;101494.63;10564774;28;20032;-66
2022/11/27 14:57:54;;;;;;;10.80;7.15;;;;;;;6.80;100.00;101475.63;10563114;28;20043;-66
2022/11/27 15:02:55;;;;;;;15.38;7.35;;;;;;;6.85;100.00;101468.75;10564279;28;20028;-66
2022/11/27 15:07:56;;;;;;;7.20;5.82;;;;;;;6.87;100.00;101474.00;10572284;28;20047;-69
2022/11/27 15:12:57;;;;;;;8.90;7.38;;;;;;;6.91;100.00;101476.19;10543207;28;20059;-66
2022/11/27 15:17:59;;;;;;;11.43;8.80;;;;;;;6.88;100.00;101478.34;10588552;28;20038;-66
2022/11/27 15:22:59;;;;;;;17.40;12.25;;;;;;;6.87;100.00;101466.75;10571367;28;20486;-66
2022/11/27 15:28:00;;;;;;;15.60;12.43;;;;;;;6.88;100.00;101456.81;10589375;28;20028;-67
2022/11/27 15:33:00;;;;;;;12.68;11.43;;;;;;;6.87;100.00;101441.69;10590064;28;20020;-67
2022/11/27 15:38:08;;;;;;;15.13;11.68;;;;;;;6.87;100.00;101436.31;10588959;28;20448;-67
2022/11/27 15:43:12;;;;;;;10.13;8.93;;;;;;;6.88;100.00;101443.38;10589405;28;20516;-66
2022/11/27 15:48:15;;;;;;;11.63;10.35;;;;;;;6.85;100.00;101435.59;10570775;28;20447;-65
2022/11/27 15:53:15;;;;;;;20.00;8.48;;;;;;;6.90;100.00;101419.81;10570667;28;20383;-65
2022/11/27 15:58:16;;;;;;;15.20;8.82;;;;;;;6.92;100.00;101423.19;10589054;28;20050;-66
2022/11/27 16:03:16;;;;;;;11.00;9.05;;;;;;;6.93;100.00;101408.75;10588676;28;20039;-66
2022/11/27 16:08:16;;;;;;;11.07;7.85;;;;;;;6.96;100.00;101411.94;10589577;28;20035;-66
2022/11/27 16:13:17;;;;;;;16.05;7.43;;;;;;;7.07;100.00;101399.19;10587987;28;20145;-66
2022/11/27 16:18:17;;;;;;;15.45;9.18;;;;;;;7.00;100.00;101388.22;10587504;28;20169;-66
2022/11/27 16:23:18;;;;;;;12.48;8.00;;;;;;;7.06;100.00;101381.34;10585557;28;20528;-66
2022/11/27 16:28:18;;;;;;;10.65;8.63;;;;;;;7.06;100.00;101378.66;10587193;28;20035;-65
2022/11/27 16:33:20;;;;;;;13.95;8.93;;;;;;;7.06;100.00;101376.81;10587192;28;20122;-66
2022/11/27 16:38:20;;;;;;;6.70;6.03;;;;;;;7.10;100.00;101378.16;10588608;28;20031;-66
2022/11/27 16:43:20;;;;;;;6.47;5.82;;;;;;;7.13;100.00;101377.84;10586926;28;20035;-66
2022/11/27 16:48:21;;;;;;;10.07;6.68;;;;;;;7.06;100.00;101374.13;10587576;28;20042;-66
2022/11/27 16:53:21;;;;;;;10.77;7.53;;;;;;;7.03;100.00;101369.06;10587171;28;20036;-66
2022/11/27 16:58:22;;;;;;;11.35;8.48;;;;;;;7.03;100.00;101366.38;10586232;28;20036;-66
2022/11/27 17:03:22;;;;;;;14.50;9.70;;;;;;;6.98;100.00;101357.91;10587276;28;20100;-65
2022/11/27 17:08:23;;;;;;;9.20;6.72;;;;;;;6.91;100.00;101336.19;10584440;28;20478;-66
2022/11/27 17:13:24;;;;;;;9.07;7.38;;;;;;;6.89;100.00;101334.66;10586610;28;20145;-66
2022/11/27 17:18:24;;;;;;;9.65;7.45;;;;;;;6.86;100.00;101326.91;10584229;28;20039;-65
2022/11/27 17:23:25;;;;;;;10.80;7.90;;;;;;;6.87;100.00;101312.47;10584887;28;20467;-65
2022/11/27 17:28:26;;;;;;;10.80;8.50;;;;;;;6.85;100.00;101309.91;10583091;28;20040;-66
2022/11/27 17:33:27;;;;;;;9.63;6.70;;;;;;;6.81;100.00;101303.19;10568356;28;20035;-65
2022/11/27 17:38:27;;;;;;;13.35;8.35;;;;;;;6.81;100.00;101283.50;10585732;28;20039;-64
2022/11/27 17:43:29;;;;;;;12.85;9.13;;;;;;;6.80;100.00;101287.22;10567169;28;20077;-65
2022/11/27 17:48:29;;;;;;;12.88;8.38;;;;;;;6.79;100.00;101272.88;10585420;28;20127;-65
2022/11/27 17:53:31;;;;;;;13.88;9.05;;;;;;;6.75;100.00;101276.91;10584586;28;20115;-65
2022/11/27 17:58:31;;;;;;;9.05;8.13;;;;;;;6.71;100.00;101268.34;10584315;28;20046;-65
2022/11/27 18:03:32;;;;;;;16.08;10.57;;;;;;;6.69;100.00;101266.81;10584623;28;20043;-65
2022/11/27 18:08:33;;;;;;;11.48;8.80;;;;;;;6.69;100.00;101258.72;10584540;28;20100;-65
2022/11/27 18:13:33;;;;;;;12.52;7.60;;;;;;;6.66;100.00;101249.13;10583658;28;20052;-66
2022/11/27 18:18:34;;;;;;;11.55;9.27;;;;;;;6.63;100.00;101246.75;10584270;28;20069;-65
2022/11/27 18:23:35;;;;;;;13.27;9.80;;;;;;;6.60;100.00;101236.31;10582359;28;20032;-66
2022/11/27 18:28:35;;;;;;;17.80;9.23;;;;;;;6.59;100.00;101231.97;10583398;28;20038;-65
2022/11/27 18:33:36;;;;;;;11.25;9.40;;;;;;;6.53;100.00;101229.91;10566447;28;20494;-65
2022/11/27 18:38:37;;;;;;;16.30;10.57;;;;;;;6.58;100.00;101221.38;10581993;28;20084;-65
2022/11/27 18:43:37;;;;;;;10.93;8.77;;;;;;;6.57;100.00;101217.81;10564887;28;20411;-65
2022/11/27 18:48:38;;;;;;;11.20;9.18;;;;;;;6.51;100.00;101216.66;10566256;28;20032;-65
2022/11/27 18:53:39;;;;;;;14.65;10.18;;;;;;;6.50;100.00;101209.56;10568938;28;20043;-66
2022/11/27 18:58:39;;;;;;;17.70;9.50;;;;;;;6.50;100.00;101206.03;10568239;28;20516;-66
2022/11/27 19:03:40;;;;;;;18.70;9.48;;;;;;;6.52;100.00;101199.47;10591632;28;20065;-66
2022/11/27 19:08:40;;;;;;;16.20;10.23;;;;;;;6.48;100.00;101190.06;10580243;28;20365;-66
2022/11/27 19:13:41;;;;;;;14.98;10.55;;;;;;;6.51;100.00;101188.91;10582690;28;20047;-67
2022/11/27 19:18:41;;;;;;;18.30;10.68;;;;;;;6.52;100.00;101188.72;10600515;28;20040;-66
2022/11/27 19:23:42;;;;;;;18.92;9.70;;;;;;;6.49;100.00;101169.38;10608929;28;20081;-65
2022/11/27 19:28:43;;;;;;;14.77;11.45;;;;;;;6.51;100.00;101167.38;10577582;28;20036;-65
2022/11/27 19:33:43;;;;;;;17.05;9.63;;;;;;;6.49;100.00;101164.00;10571998;28;20409;-65
2022/11/27 19:38:43;;;;;;;17.35;9.75;;;;;;;6.46;100.00;101151.72;10582798;28;20031;-65
2022/11/27 19:43:44;;;;;;;25.58;10.70;;;;;;;6.46;100.00;101145.50;10581239;28;20027;-66
2022/11/27 19:48:44;;;;;;;13.02;10.98;;;;;;;6.47;100.00;101134.56;10563536;28;20479;-65
2022/11/27 19:53:45;;;;;;;12.02;10.38;;;;;;;6.51;100.00;101129.72;10570902;28;20062;-65
2022/11/27 19:58:45;;;;;;;13.90;9.98;;;;;;;6.49;100.00;101126.34;10588128;28;20104;-65
2022/11/27 20:03:46;;;;;;;12.13;10.70;;;;;;;6.53;100.00;101114.22;10588524;28;20112;-65
2022/11/27 20:08:48;;;;;;;13.05;10.63;;;;;;;6.52;100.00;101105.31;10553191;28;20027;-65
2022/11/27 20:13:48;;;;;;;15.95;10.98;;;;;;;6.52;100.00;101099.94;10588053;28;20059;-65
2022/11/27 20:18:50;;;;;;;17.90;10.68;;;;;;;6.50;100.00;101085.78;10570397;28;20048;-66
2022/11/27 20:23:50;;;;;;;13.65;9.70;;;;;;;6.46;100.00;101086.31;10587252;28;20023;-66
2022/11/27 20:28:51;;;;;;;14.43;12.48;;;;;;;6.45;100.00;101079.25;10586427;28;20028;-65
2022/11/27 20:33:53;;;;;;;17.48;13.75;;;;;;;6.41;100.00;101075.19;10552358;28;20467;-66
2022/11/27 20:38:56;;;;;;;11.85;10.65;;;;;;;6.43;100.00;101062.44;10585967;28;20023;-66
2022/11/27 20:43:58;;;;;;;19.45;11.50;;;;;;;6.41;100.00;101062.56;10585737;28;20103;-65
2022/11/27 20:48:58;;;;;;;18.95;12.93;;;;;;;6.44;100.00;101056.03;10586158;28;20101;-65
2022/11/27 20:54:00;;;;;;;16.80;10.40;;;;;;;6.43;100.00;101052.50;10568793;28;20047;-65
2022/11/27 20:59:00;;;;;;;12.55;9.93;;;;;;;6.48;100.00;101049.34;10586086;28;20036;-65
2022/11/27 21:04:07;;;;;;;14.55;11.52;;;;;;;6.47;100.00;101044.94;10585898;28;20063;-66
2022/11/27 21:09:08;;;;;;;18.13;12.70;;;;;;;6.47;100.00;101042.25;10569324;28;20028;-66
2022/11/27 21:14:09;;;;;;;11.18;9.88;;;;;;;6.46;100.00;101040.56;10586287;28;20479;-66
2022/11/27 21:19:18;;;;;;;16.48;12.45;;;;;;;6.44;100.00;101026.44;10568694;28;20043;-66
2022/11/27 21:24:19;;;;;;;13.38;10.98;;;;;;;6.48;100.00;101027.81;10584476;28;20035;-66
2022/11/27 21:29:24;;;;;;;17.45;11.23;;;;;;;6.44;100.00;101026.44;10566803;28;20036;-65
2022/11/27 21:34:24;;;;;;;15.95;11.88;;;;;;;6.42;100.00;101017.72;10585239;28;20035;-65
2022/11/27 21:39:24;;;;;;;12.70;11.35;;;;;;;6.45;100.00;101006.63;10566102;28;20118;-65
2022/11/27 21:44:25;;;;;;;13.02;11.43;;;;;;;6.49;100.00;100992.66;10566004;28;20028;-65
2022/11/27 21:49:25;;;;;;;15.50;12.15;;;;;;;6.44;100.00;100994.16;10566211;28;20065;-64
2022/11/27 21:54:26;;;;;;;16.33;11.40;;;;;;;6.45;100.00;100985.09;10584294;28;20104;-65
2022/11/27 21:59:26;;;;;;;14.52;11.25;;;;;;;6.47;100.00;100991.13;10582456;28;20039;-65
2022/11/27 22:04:26;;;;;;;18.23;12.52;;;;;;;6.47;100.00;100973.16;10584075;28;20031;-65
2022/11/27 22:09:32;;;;;;;19.98;13.48;;;;;;;6.48;100.00;100971.31;10566160;28;20038;-65
2022/11/27 22:14:32;;;;;;;15.07;11.95;;;;;;;6.53;100.00;100968.94;10582930;28;20052;-65
2022/11/27 22:19:35;;;;;;;17.90;12.07;;;;;;;6.53;100.00;100958.19;10583638;28;20085;-65
2022/11/27 22:24:35;;;;;;;17.85;13.02;;;;;;;6.56;100.00;100952.47;10582732;28;20035;-65
2022/11/27 22:29:35;;;;;;;12.23;11.02;;;;;;;6.57;100.00;100946.06;10581949;28;20066;-65
2022/11/27 22:34:36;;;;;;;13.60;12.20;;;;;;;6.63;100.00;100937.31;10581774;28;20479;-66
2022/11/27 22:39:36;;;;;;;17.25;12.25;;;;;;;6.64;100.00;100933.63;10582246;28;20028;-65
2022/11/27 22:44:37;;;;;;;14.43;12.77;;;;;;;6.66;100.00;100917.31;10582082;28;20031;-66
2022/11/27 22:49:37;;;;;;;16.58;13.85;;;;;;;6.71;100.00;100915.78;10583222;28;20050;-65
2022/11/27 22:54:37;;;;;;;17.55;13.95;;;;;;;6.68;100.00;100920.66;10582131;28;20027;-67
2022/11/27 22:59:38;;;;;;;19.70;13.45;;;;;;;6.73;100.00;100918.28;10580759;28;20464;-64
2022/11/27 23:04:38;;;;;;;14.95;13.40;;;;;;;6.78;100.00;100920.47;10563507;28;20036;-64